Snake Valley, Nevada Weather observations

Data are for 10 minute period ending at time listed.
 Day   Time   Solar   Ave.   Ave.  Ave.  Vector  Max.   Baro.   Total    
  of    of     Rad.   Air    Rel.  Wind   Wind   Wind  Press.  Precip.   
Year   Day            Temp.  Hum.  Speed  Dir.   Gust                    
2016   (PST)  Kw/m2    F      %     mph   deg.    mph    mb.     in.     
-------------------------------------------------------------------------
 179    8:50   0.77   82.3    17    2.7    63     6.0   847.6    0.00 
 179    9:00   0.79   82.7    15    3.4   121     5.9   847.6    0.00 
 179    9:10   0.82   83.0    15    3.3   130     5.3   847.6    0.00 
 179    9:20   0.84   84.2    15    3.2   140     4.8   847.6    0.00 
 179    9:30   0.86   84.8    15    3.1   124     6.1   847.6    0.00 
 179    9:40   0.89   86.9    14    1.2    58     3.9   847.6    0.00 
 179    9:50   0.91   87.6    12    2.3   110     4.9   847.5    0.00 
 179   10:00   0.92   87.7    13    2.8   150     4.9   847.6    0.00 
 179   10:10   0.94   88.6    11    1.8   124     4.3   847.5    0.00 
 179   10:20   0.96   88.7    11    1.9   104     5.0   847.5    0.00 
 179   10:30   0.97   89.6    11    2.2   156     5.0   847.4    0.00 
 179   10:40   0.98   89.4    10    1.6   129     4.2   847.4    0.00 
 179   10:50   0.99   89.3    14    3.1   266     4.5   847.3    0.00 
 179   11:00   1.00   87.9    21    3.4   284     4.8   847.2    0.00 
 179   11:10   1.01   88.2    19    2.5   274     3.9   847.1    0.00 
 179   11:20   1.01   89.7    14    2.0   303     3.0   847.0    0.00 
 179   11:30   1.02   91.3    14    2.1    29     3.6   846.8    0.00 
 179   11:40   1.02   92.6    12    2.5    56     4.2   846.6    0.00 
 179   11:50   1.02   93.2    11    2.5     8     5.0   846.5    0.00 
 179   12:00   1.02   93.4    12    2.9    15     8.0   846.4    0.00 
 179   12:10   1.02   94.1    13    3.3    25     7.2   846.2    0.00 
 179   12:20   1.02   94.2    13    3.1    47     6.6   846.1    0.00 
 179   12:30   1.01   94.7    12    2.6    22     4.5   845.9    0.00 
 179   12:40   1.00   95.1    15    3.5    36     7.9   845.8    0.00 
 179   12:50   0.99   94.5    10    4.6    28     9.3   845.7    0.00 
 179   13:00   0.98   95.8    12    3.0   316     7.6   845.5    0.00 
 179   13:10   0.97   96.7     8    3.2    88     8.1   845.3    0.00 
 179   13:20   0.96   97.7    12    3.4    20    13.3   845.1    0.00 
 179   13:30   0.95   96.4    13    3.1     8     8.0   845.0    0.00 
 179   13:40   0.94   97.1    13    3.6    49     7.1   844.8    0.00 
 179   13:50   0.91   97.0    10    3.9    69     6.2   844.7    0.00 
 179   14:00   0.90   98.4     7    1.5    50     6.6   844.6    0.00 
 179   14:10   0.88   98.6     9    3.6   329    11.2   844.4    0.00 
 179   14:20   0.86   97.3    12    4.9    97    10.0   844.2    0.00 
 179   14:30   0.84   97.2    11    3.6    54     7.1   844.1    0.00 
 179   14:40   0.82   98.7     8    4.1   223     9.4   844.1    0.00 
 179   14:50   0.80   98.4     9    4.7     1     9.6   843.9    0.00 
 179   15:00   0.79   96.5     8    4.5   312    11.1   843.9    0.00 
 179   15:10   0.55   99.1     9    0.8   360     3.7   843.8    0.00 
 179   15:20   0.29   98.4    10    3.2    72     5.8   843.8    0.00 
 179   15:30   0.32   93.3    12    5.0    25     9.6   843.7    0.00 
 179   15:40   0.12   93.4    12    1.2     3     3.8   843.7    0.00 
 179   15:50   0.20   90.8    16    3.1    37     5.6   843.7    0.00 
 179   16:00   0.54   93.7    13    1.6   106     2.5   843.7    0.00 
 179   16:10   0.35   95.1    16    3.3   129     5.3   843.7    0.00 
 179   16:20   0.16   92.8    18    1.9    80     4.8   843.6    0.00 
 179   16:30   0.47   93.8    14    2.4    40     4.7   843.6    0.00 
 179   16:40   0.51   97.0    12    2.0   100     4.4   843.5    0.00 
 179   16:50   0.48   97.6    14    2.1   162     5.3   843.5    0.00 
 179   17:00   0.24   95.7    15    3.6   179     6.3   843.4    0.00 
 179   17:10   0.19   91.6    17    3.8   185     6.8   843.4    0.00 
 179   17:20   0.35   89.3    18    7.7   227    13.7   843.4    0.00 
 179   17:30   0.38   91.4    13    8.8   195    17.3   843.5    0.00 
 179   17:40   0.35   94.6     9   10.3   168    28.1   843.7    0.00 
 179   17:50   0.26   93.0    11    8.7   106    15.3   843.5    0.00 
 179   18:00   0.13   90.5    14    4.6    95     8.3   843.5    0.00 
 179   18:10   0.09   91.1    11    2.9   119     4.7   843.5    0.00 
 179   18:20   0.11   89.2    22    1.5   179     4.1   843.5    0.00 
 179   18:30   0.13   85.8    22    3.1   149     5.6   843.5    0.00 
 179   18:40   0.09   88.7    16    3.3   178     6.0   843.6    0.00 
 179   18:50   0.04   90.7    11    5.0   179    10.8   843.6    0.00 
 179   19:00   0.02   86.7    18    2.6   335     3.9   843.6    0.00 
 179   19:10   0.01   85.4    16    2.7   337     4.5   843.7    0.00 
 179   19:20   0.00   85.3    15    2.2    67     6.0   843.7    0.00 
 179   19:30   0.00   82.8    20    0.8   316     2.1   843.6    0.00 
 179   19:40   0.00   76.8    34    1.9   266     3.4   843.6    0.00 
 179   19:50   0.00   75.9    29    5.8   286    11.0   843.6    0.00 
 179   20:00   0.00   85.1    13    3.8     4     6.1   843.7    0.00 
 179   20:10   0.00   81.7    16    5.9   316    10.7   843.7    0.00 
 179   20:20   0.00   82.5    14    5.5   349     7.7   843.8    0.00 
 179   20:30   0.00   83.4    15    4.2   324     6.7   843.9    0.00 
 179   20:40   0.00   72.1    32    5.8   278     7.2   843.9    0.00 
 179   20:50   0.00   71.8    35    4.6   290     7.5   843.8    0.00 
 179   21:00   0.00   68.3    43    5.5   271     6.7   843.8    0.00 
 179   21:10   0.00   68.1    45    3.5   292     4.5   843.8    0.00 
 179   21:20   0.00   72.3    32    4.6   286     6.1   843.8    0.00 
 179   21:30   0.00   73.7    27    4.9   256     6.6   843.8    0.00 
 179   21:40   0.00   75.5    26    3.6   305     6.9   844.0    0.00 
 179   21:50   0.00   71.0    38    1.0   304     2.3   843.9    0.00 
 179   22:00   0.00   70.3    35    2.8   327     4.1   844.0    0.00 
 179   22:10   0.00   73.1    29    2.6     8     3.5   844.1    0.00 
 179   22:20   0.00   69.9    36    2.3    17     4.4   844.1    0.00 
 179   22:30   0.00   66.5    45    3.0   270     5.2   844.1    0.00 
 179   22:40   0.00   64.9    42    4.8   199     8.6   844.4    0.00 
 179   22:50   0.00   66.9    34    4.0   255     6.2   844.4    0.00 
 179   23:00   0.00   67.7    33    4.4   341     6.9   844.3    0.00 
 179   23:10   0.00   66.6    34    6.3   312     7.2   844.2    0.00 
 179   23:20   0.00   66.2    37    6.1   302     8.8   844.1    0.00 
 179   23:30   0.00   61.7    50    5.5   282     6.9   844.2    0.00 
 179   23:40   0.00   63.9    42    5.7   310     6.6   844.2    0.00 
 179   23:50   0.00   65.4    31    6.4   355     7.8   844.2    0.00 
 180    0:00   0.00   65.3    33    5.2   318     6.8   844.0    0.00 
 180    0:10   0.00   61.8    40    5.7   239     8.2   844.0    0.00 
 180    0:20   0.00   60.4    49    3.9   257     5.7   844.0    0.00 
 180    0:30   0.00   59.6    53    3.8    87     5.2   844.2    0.00 
 180    0:40   0.00   60.4    40    1.5    64     4.5   844.3    0.00 
 180    0:50   0.00   61.6    46    3.7   226     6.1   844.3    0.00 
 180    1:00   0.00   59.6    48    4.2   304     6.6   844.4    0.00 
 180    1:10   0.00   59.1    52    5.6   286     6.4   844.3    0.00 
 180    1:20   0.00   57.5    57    5.2   292     6.8   844.3    0.00 
 180    1:30   0.00   59.4    42    4.8   324     6.6   844.3    0.00 
 180    1:40   0.00   62.3    35    4.9   310     6.3   844.3    0.00 
 180    1:50   0.00   59.1    45    5.9   302     6.9   844.3    0.00 
 180    2:00   0.00   58.5    49    4.8   274     5.9   844.4    0.00 
 180    2:10   0.00   58.1    49    4.9   210     6.2   844.7    0.00 
 180    2:20   0.00   59.8    40    1.3   159     5.8   844.8    0.00 
 180    2:30   0.00   58.7    50    1.1   275     3.1   844.8    0.00 
 180    2:40   0.00   60.0    38    1.3   245     2.6   844.9    0.00 
 180    2:50   0.00   62.5    34    1.6   302     4.5   844.8    0.00 
 180    3:00   0.00   59.0    48    4.5   299     6.7   844.8    0.00 
 180    3:10   0.00   61.6    34    1.3   323     4.2   844.8    0.00 
 180    3:20   0.00   56.6    55    4.5   292     7.5   844.8    0.00 
 180    3:30   0.00   56.5    46    5.8   290     8.4   844.8    0.00 
 180    3:40   0.00   57.4    44    5.8   282     8.3   844.9    0.00 
 180    3:50   0.00   58.9    40    4.6   307     5.9   844.9    0.00 
 180    4:00   0.00   61.5    31    5.1   328     6.1   845.0    0.00 
 180    4:10   0.00   58.7    40    4.7   192     8.2   845.1    0.00 
 180    4:20   0.01   57.3    45    2.2   155     4.2   845.2    0.00 
 180    4:30   0.01   55.8    50    2.5   244     4.2   845.3    0.00 
 180    4:40   0.02   55.7    54    3.3   262     3.9   845.4    0.00 
 180    4:50   0.04   54.7    58    4.6   294     5.3   845.5    0.00 
 180    5:00   0.07   57.2    48    2.6   333     4.2   845.5    0.00 
 180    5:10   0.09   61.2    38    1.2    11     2.6   845.5    0.00 
 180    5:20   0.12   61.1    54    2.0   222     4.2   845.6    0.00 
 180    5:30   0.13   62.7    46    1.8   212     4.0   845.6    0.00 
 180    5:40   0.16   65.4    41    1.2   280     3.0   845.6    0.00 
 180    5:50   0.20   69.2    35    1.9   123     3.1   845.5    0.00 
 180    6:00   0.23   70.7    34    3.8   173     9.1   845.5    0.00 
 180    6:10   0.26   73.4    33    4.0   161     5.7   845.4    0.00 
 180    6:20   0.30   76.2    30    3.1   149     8.2   845.3    0.00 
 180    6:30   0.33   76.6    29    7.0   154    11.0   845.2    0.00 
 180    6:40   0.35   76.6    32    6.4   148    10.2   845.2    0.00 
 180    6:50   0.37   77.8    31    6.1   154     9.7   845.2    0.00 
 180    7:00   0.35   79.0    30    3.9   154     6.8   845.3    0.00 
 180    7:10   0.47   80.6    30    4.3   150     6.6   845.4    0.00 
 180    7:20   0.49   81.6    30    5.4   140     9.2   845.5    0.00 
 180    7:30   0.49   82.8    28    4.7   143     8.4   845.7    0.00 
 180    7:40   0.50   83.7    24    5.9   139    11.1   845.8    0.00 
 180    7:50   0.54   85.3    24    3.5   142     5.8   846.0    0.00 
 180    8:00   0.61   86.6    23    4.8   142     8.1   846.0    0.00 
 180    8:10   0.68   88.0    19    4.6   143     9.1   846.0    0.00 
 180    8:20   0.70   87.4    22    5.2   131     9.7   845.9    0.00 
 180    8:30   0.74   88.2    22    5.8   126     9.8   845.9    0.00 
 180    8:40   0.76   88.7    22    5.0   109     8.1   845.8    0.00 

Return to Snake Valley graphs page.


Western Regional Climate Center,wrcc@dri.edu